sensor_id;sensor_type;location;lat;lon;timestamp;P1;durP1;ratioP1;P2;durP2;ratioP2
62687;SDS011;48752;51.056;17.056;2023-06-01T00:01:28;12.27;;;5.72;;
62687;SDS011;48752;51.056;17.056;2023-06-01T00:03:59;10.57;;;5.20;;
62687;SDS011;48752;51.056;17.056;2023-06-01T00:06:24;12.45;;;5.30;;
62687;SDS011;48752;51.056;17.056;2023-06-01T00:08:53;12.65;;;5.47;;
62687;SDS011;48752;51.056;17.056;2023-06-01T00:11:19;9.15;;;5.30;;
62687;SDS011;48752;51.056;17.056;2023-06-01T00:13:47;10.82;;;5.13;;
62687;SDS011;48752;51.056;17.056;2023-06-01T00:16:21;13.80;;;5.22;;
62687;SDS011;48752;51.056;17.056;2023-06-01T00:18:57;10.20;;;4.80;;
62687;SDS011;48752;51.056;17.056;2023-06-01T00:21:25;9.25;;;4.93;;
62687;SDS011;48752;51.056;17.056;2023-06-01T00:23:51;10.00;;;5.43;;
62687;SDS011;48752;51.056;17.056;2023-06-01T00:26:17;11.32;;;5.10;;
62687;SDS011;48752;51.056;17.056;2023-06-01T00:28:43;9.40;;;4.93;;
62687;SDS011;48752;51.056;17.056;2023-06-01T00:31:08;9.27;;;5.55;;
62687;SDS011;48752;51.056;17.056;2023-06-01T00:33:34;8.25;;;4.75;;
62687;SDS011;48752;51.056;17.056;2023-06-01T00:35:59;6.50;;;4.40;;
62687;SDS011;48752;51.056;17.056;2023-06-01T00:38:24;9.02;;;4.72;;
62687;SDS011;48752;51.056;17.056;2023-06-01T00:40:51;6.57;;;4.47;;
62687;SDS011;48752;51.056;17.056;2023-06-01T00:43:19;8.75;;;5.03;;
62687;SDS011;48752;51.056;17.056;2023-06-01T00:45:44;13.52;;;5.32;;
62687;SDS011;48752;51.056;17.056;2023-06-01T00:48:11;11.80;;;5.25;;
62687;SDS011;48752;51.056;17.056;2023-06-01T00:50:37;7.07;;;4.88;;
62687;SDS011;48752;51.056;17.056;2023-06-01T00:53:03;10.63;;;4.80;;
62687;SDS011;48752;51.056;17.056;2023-06-01T00:55:31;8.98;;;4.50;;
62687;SDS011;48752;51.056;17.056;2023-06-01T00:57:57;8.15;;;5.05;;
62687;SDS011;48752;51.056;17.056;2023-06-01T01:00:25;8.80;;;4.38;;
62687;SDS011;48752;51.056;17.056;2023-06-01T01:02:52;10.18;;;4.85;;
62687;SDS011;48752;51.056;17.056;2023-06-01T01:05:18;12.38;;;4.82;;
62687;SDS011;48752;51.056;17.056;2023-06-01T01:10:32;14.77;;;5.00;;
62687;SDS011;48752;51.056;17.056;2023-06-01T01:13:03;8.88;;;4.45;;
62687;SDS011;48752;51.056;17.056;2023-06-01T01:15:40;7.38;;;4.07;;
62687;SDS011;48752;51.056;17.056;2023-06-01T01:18:22;14.35;;;5.47;;
62687;SDS011;48752;51.056;17.056;2023-06-01T01:20:51;10.90;;;4.18;;
62687;SDS011;48752;51.056;17.056;2023-06-01T01:31:12;11.20;;;4.65;;
62687;SDS011;48752;51.056;17.056;2023-06-01T01:33:47;9.43;;;4.00;;
62687;SDS011;48752;51.056;17.056;2023-06-01T01:36:12;8.55;;;4.28;;
62687;SDS011;48752;51.056;17.056;2023-06-01T01:38:39;8.55;;;4.43;;
62687;SDS011;48752;51.056;17.056;2023-06-01T01:41:05;10.60;;;4.63;;
62687;SDS011;48752;51.056;17.056;2023-06-01T01:43:32;7.18;;;4.63;;
62687;SDS011;48752;51.056;17.056;2023-06-01T01:46:21;9.60;;;4.78;;
62687;SDS011;48752;51.056;17.056;2023-06-01T01:51:15;7.93;;;4.63;;
62687;SDS011;48752;51.056;17.056;2023-06-01T01:53:41;11.65;;;4.75;;
62687;SDS011;48752;51.056;17.056;2023-06-01T01:56:08;10.65;;;4.85;;
62687;SDS011;48752;51.056;17.056;2023-06-01T01:58:34;8.70;;;4.53;;
62687;SDS011;48752;51.056;17.056;2023-06-01T02:00:59;9.13;;;4.80;;
62687;SDS011;48752;51.056;17.056;2023-06-01T02:03:26;9.90;;;4.78;;
62687;SDS011;48752;51.056;17.056;2023-06-01T02:05:52;10.32;;;4.32;;
62687;SDS011;48752;51.056;17.056;2023-06-01T02:08:18;9.07;;;4.13;;
62687;SDS011;48752;51.056;17.056;2023-06-01T02:10:43;11.07;;;4.97;;
62687;SDS011;48752;51.056;17.056;2023-06-01T02:13:09;10.38;;;4.43;;
62687;SDS011;48752;51.056;17.056;2023-06-01T02:15:34;10.82;;;5.10;;
62687;SDS011;48752;51.056;17.056;2023-06-01T02:18:00;6.57;;;4.68;;
62687;SDS011;48752;51.056;17.056;2023-06-01T02:20:27;12.55;;;4.35;;
62687;SDS011;48752;51.056;17.056;2023-06-01T02:22:54;7.60;;;4.82;;
62687;SDS011;48752;51.056;17.056;2023-06-01T02:25:19;12.23;;;5.28;;
62687;SDS011;48752;51.056;17.056;2023-06-01T02:27:45;8.55;;;5.03;;
62687;SDS011;48752;51.056;17.056;2023-06-01T02:30:10;9.27;;;5.03;;
62687;SDS011;48752;51.056;17.056;2023-06-01T02:32:36;7.07;;;4.45;;
62687;SDS011;48752;51.056;17.056;2023-06-01T02:35:03;11.32;;;4.80;;
62687;SDS011;48752;51.056;17.056;2023-06-01T02:37:28;8.77;;;4.53;;
62687;SDS011;48752;51.056;17.056;2023-06-01T02:39:55;8.63;;;4.70;;
62687;SDS011;48752;51.056;17.056;2023-06-01T02:42:20;7.45;;;4.53;;
62687;SDS011;48752;51.056;17.056;2023-06-01T02:44:45;10.93;;;3.80;;
62687;SDS011;48752;51.056;17.056;2023-06-01T02:47:10;8.93;;;4.95;;
62687;SDS011;48752;51.056;17.056;2023-06-01T02:49:36;8.57;;;4.73;;
62687;SDS011;48752;51.056;17.056;2023-06-01T02:52:02;5.47;;;4.22;;
62687;SDS011;48752;51.056;17.056;2023-06-01T02:54:30;8.20;;;4.70;;
62687;SDS011;48752;51.056;17.056;2023-06-01T02:56:55;9.80;;;4.30;;
62687;SDS011;48752;51.056;17.056;2023-06-01T02:59:21;9.48;;;4.45;;
62687;SDS011;48752;51.056;17.056;2023-06-01T03:01:47;7.70;;;4.30;;
62687;SDS011;48752;51.056;17.056;2023-06-01T03:04:14;6.57;;;3.80;;
62687;SDS011;48752;51.056;17.056;2023-06-01T03:06:40;6.13;;;4.25;;
62687;SDS011;48752;51.056;17.056;2023-06-01T03:09:09;10.00;;;4.47;;
62687;SDS011;48752;51.056;17.056;2023-06-01T03:11:40;6.65;;;4.13;;
62687;SDS011;48752;51.056;17.056;2023-06-01T03:14:06;7.05;;;4.95;;
62687;SDS011;48752;51.056;17.056;2023-06-01T03:16:31;8.57;;;4.90;;
62687;SDS011;48752;51.056;17.056;2023-06-01T03:18:57;15.27;;;4.83;;
62687;SDS011;48752;51.056;17.056;2023-06-01T03:21:23;6.05;;;4.00;;
62687;SDS011;48752;51.056;17.056;2023-06-01T03:23:50;8.43;;;4.20;;
62687;SDS011;48752;51.056;17.056;2023-06-01T03:26:16;11.52;;;4.45;;
62687;SDS011;48752;51.056;17.056;2023-06-01T03:28:44;10.50;;;5.30;;
62687;SDS011;48752;51.056;17.056;2023-06-01T03:31:09;5.93;;;4.15;;
62687;SDS011;48752;51.056;17.056;2023-06-01T03:33:36;6.28;;;3.70;;
62687;SDS011;48752;51.056;17.056;2023-06-01T03:36:01;8.57;;;3.47;;
62687;SDS011;48752;51.056;17.056;2023-06-01T03:38:27;10.20;;;4.00;;
62687;SDS011;48752;51.056;17.056;2023-06-01T03:40:53;8.10;;;4.13;;
62687;SDS011;48752;51.056;17.056;2023-06-01T03:43:20;7.00;;;4.13;;
62687;SDS011;48752;51.056;17.056;2023-06-01T03:45:47;6.80;;;3.53;;
62687;SDS011;48752;51.056;17.056;2023-06-01T03:48:13;9.55;;;4.40;;
62687;SDS011;48752;51.056;17.056;2023-06-01T03:50:38;4.50;;;3.75;;
62687;SDS011;48752;51.056;17.056;2023-06-01T03:53:04;12.40;;;5.10;;
62687;SDS011;48752;51.056;17.056;2023-06-01T03:55:31;15.07;;;5.15;;
62687;SDS011;48752;51.056;17.056;2023-06-01T03:58:00;9.98;;;4.30;;
62687;SDS011;48752;51.056;17.056;2023-06-01T04:00:29;8.68;;;4.60;;
62687;SDS011;48752;51.056;17.056;2023-06-01T04:02:56;10.93;;;4.45;;
62687;SDS011;48752;51.056;17.056;2023-06-01T04:05:22;10.02;;;4.18;;
62687;SDS011;48752;51.056;17.056;2023-06-01T04:07:51;12.00;;;4.13;;
62687;SDS011;48752;51.056;17.056;2023-06-01T04:10:17;7.65;;;4.43;;
62687;SDS011;48752;51.056;17.056;2023-06-01T04:12:45;10.27;;;4.53;;
62687;SDS011;48752;51.056;17.056;2023-06-01T04:15:19;10.25;;;5.30;;
62687;SDS011;48752;51.056;17.056;2023-06-01T04:17:45;10.88;;;5.18;;
62687;SDS011;48752;51.056;17.056;2023-06-01T04:20:14;9.15;;;4.20;;
62687;SDS011;48752;51.056;17.056;2023-06-01T04:22:41;11.63;;;4.50;;
62687;SDS011;48752;51.056;17.056;2023-06-01T04:25:10;8.50;;;4.72;;
62687;SDS011;48752;51.056;17.056;2023-06-01T04:27:47;10.40;;;4.55;;
62687;SDS011;48752;51.056;17.056;2023-06-01T04:30:25;13.57;;;4.72;;
62687;SDS011;48752;51.056;17.056;2023-06-01T04:32:52;11.70;;;4.38;;
62687;SDS011;48752;51.056;17.056;2023-06-01T04:35:19;15.98;;;5.47;;
62687;SDS011;48752;51.056;17.056;2023-06-01T04:37:45;15.20;;;5.68;;
62687;SDS011;48752;51.056;17.056;2023-06-01T04:40:12;6.18;;;4.45;;
62687;SDS011;48752;51.056;17.056;2023-06-01T04:42:40;8.30;;;4.60;;
62687;SDS011;48752;51.056;17.056;2023-06-01T04:45:08;10.73;;;4.35;;
62687;SDS011;48752;51.056;17.056;2023-06-01T04:47:35;8.07;;;4.05;;
62687;SDS011;48752;51.056;17.056;2023-06-01T04:50:09;12.95;;;4.35;;
62687;SDS011;48752;51.056;17.056;2023-06-01T04:52:36;12.82;;;5.15;;
62687;SDS011;48752;51.056;17.056;2023-06-01T04:55:15;12.27;;;4.85;;
62687;SDS011;48752;51.056;17.056;2023-06-01T04:57:43;9.68;;;4.78;;
62687;SDS011;48752;51.056;17.056;2023-06-01T05:00:10;10.40;;;4.38;;
62687;SDS011;48752;51.056;17.056;2023-06-01T05:02:39;9.60;;;4.13;;
62687;SDS011;48752;51.056;17.056;2023-06-01T05:05:15;15.70;;;5.15;;
62687;SDS011;48752;51.056;17.056;2023-06-01T05:07:47;11.02;;;4.55;;
62687;SDS011;48752;51.056;17.056;2023-06-01T05:10:13;9.80;;;4.50;;
62687;SDS011;48752;51.056;17.056;2023-06-01T05:12:39;13.48;;;5.20;;
62687;SDS011;48752;51.056;17.056;2023-06-01T05:15:06;17.20;;;5.63;;
62687;SDS011;48752;51.056;17.056;2023-06-01T05:17:31;28.05;;;5.30;;
62687;SDS011;48752;51.056;17.056;2023-06-01T05:19:58;28.23;;;5.63;;
62687;SDS011;48752;51.056;17.056;2023-06-01T05:22:24;23.45;;;5.60;;
62687;SDS011;48752;51.056;17.056;2023-06-01T05:24:58;27.38;;;5.45;;
62687;SDS011;48752;51.056;17.056;2023-06-01T05:27:27;13.48;;;4.22;;
62687;SDS011;48752;51.056;17.056;2023-06-01T05:29:54;16.10;;;5.38;;
62687;SDS011;48752;51.056;17.056;2023-06-01T05:32:20;15.80;;;5.10;;
62687;SDS011;48752;51.056;17.056;2023-06-01T05:34:45;14.82;;;4.57;;
62687;SDS011;48752;51.056;17.056;2023-06-01T05:37:14;12.55;;;4.10;;
62687;SDS011;48752;51.056;17.056;2023-06-01T05:39:40;12.48;;;4.13;;
62687;SDS011;48752;51.056;17.056;2023-06-01T05:42:06;10.27;;;4.37;;
62687;SDS011;48752;51.056;17.056;2023-06-01T05:44:32;14.90;;;4.43;;
62687;SDS011;48752;51.056;17.056;2023-06-01T05:46:57;13.52;;;4.65;;
62687;SDS011;48752;51.056;17.056;2023-06-01T05:49:22;17.63;;;4.87;;
62687;SDS011;48752;51.056;17.056;2023-06-01T05:51:48;9.98;;;4.28;;
62687;SDS011;48752;51.056;17.056;2023-06-01T05:54:14;16.10;;;4.10;;
62687;SDS011;48752;51.056;17.056;2023-06-01T05:56:40;12.38;;;3.85;;
62687;SDS011;48752;51.056;17.056;2023-06-01T05:59:11;6.22;;;3.05;;
62687;SDS011;48752;51.056;17.056;2023-06-01T06:04:05;17.08;;;3.85;;
62687;SDS011;48752;51.056;17.056;2023-06-01T06:09:24;6.35;;;3.08;;
62687;SDS011;48752;51.056;17.056;2023-06-01T06:14:16;10.77;;;3.10;;
62687;SDS011;48752;51.056;17.056;2023-06-01T06:16:41;6.72;;;2.45;;
62687;SDS011;48752;51.056;17.056;2023-06-01T06:19:07;6.63;;;2.53;;
62687;SDS011;48752;51.056;17.056;2023-06-01T06:21:33;9.10;;;2.67;;
62687;SDS011;48752;51.056;17.056;2023-06-01T06:23:59;11.43;;;2.85;;
62687;SDS011;48752;51.056;17.056;2023-06-01T06:26:26;6.80;;;2.90;;
62687;SDS011;48752;51.056;17.056;2023-06-01T06:28:53;6.97;;;2.60;;
62687;SDS011;48752;51.056;17.056;2023-06-01T06:31:20;18.58;;;3.60;;
62687;SDS011;48752;51.056;17.056;2023-06-01T06:33:46;9.55;;;2.53;;
62687;SDS011;48752;51.056;17.056;2023-06-01T06:36:12;8.27;;;2.87;;
62687;SDS011;48752;51.056;17.056;2023-06-01T06:38:38;12.25;;;2.85;;
62687;SDS011;48752;51.056;17.056;2023-06-01T06:41:06;11.93;;;3.08;;
62687;SDS011;48752;51.056;17.056;2023-06-01T06:43:31;12.23;;;3.35;;
62687;SDS011;48752;51.056;17.056;2023-06-01T06:45:56;4.63;;;2.37;;
62687;SDS011;48752;51.056;17.056;2023-06-01T06:48:21;5.53;;;2.13;;
62687;SDS011;48752;51.056;17.056;2023-06-01T06:50:47;6.87;;;2.87;;
62687;SDS011;48752;51.056;17.056;2023-06-01T06:53:21;3.40;;;2.35;;
62687;SDS011;48752;51.056;17.056;2023-06-01T06:55:47;10.00;;;2.72;;
62687;SDS011;48752;51.056;17.056;2023-06-01T06:58:15;11.00;;;2.85;;
62687;SDS011;48752;51.056;17.056;2023-06-01T07:00:40;3.90;;;2.20;;
62687;SDS011;48752;51.056;17.056;2023-06-01T07:03:08;6.10;;;2.63;;
62687;SDS011;48752;51.056;17.056;2023-06-01T07:05:35;12.18;;;2.88;;
62687;SDS011;48752;51.056;17.056;2023-06-01T07:08:02;4.25;;;2.17;;
62687;SDS011;48752;51.056;17.056;2023-06-01T07:10:27;8.45;;;2.13;;
62687;SDS011;48752;51.056;17.056;2023-06-01T07:12:52;8.50;;;2.10;;
62687;SDS011;48752;51.056;17.056;2023-06-01T07:15:18;8.27;;;2.47;;
62687;SDS011;48752;51.056;17.056;2023-06-01T07:17:44;8.47;;;1.77;;
62687;SDS011;48752;51.056;17.056;2023-06-01T07:20:13;12.85;;;2.22;;
62687;SDS011;48752;51.056;17.056;2023-06-01T07:22:39;5.25;;;3.08;;
62687;SDS011;48752;51.056;17.056;2023-06-01T07:25:13;3.90;;;2.30;;
62687;SDS011;48752;51.056;17.056;2023-06-01T07:27:40;5.07;;;2.17;;
62687;SDS011;48752;51.056;17.056;2023-06-01T07:30:09;6.07;;;1.92;;
62687;SDS011;48752;51.056;17.056;2023-06-01T07:32:39;6.28;;;1.80;;
62687;SDS011;48752;51.056;17.056;2023-06-01T07:35:05;7.07;;;2.13;;
62687;SDS011;48752;51.056;17.056;2023-06-01T07:37:33;4.95;;;2.10;;
62687;SDS011;48752;51.056;17.056;2023-06-01T07:39:58;3.70;;;1.90;;
62687;SDS011;48752;51.056;17.056;2023-06-01T07:42:24;5.50;;;2.13;;
62687;SDS011;48752;51.056;17.056;2023-06-01T07:44:50;5.70;;;2.15;;
62687;SDS011;48752;51.056;17.056;2023-06-01T07:47:17;8.07;;;1.70;;
62687;SDS011;48752;51.056;17.056;2023-06-01T07:49:42;7.47;;;2.60;;
62687;SDS011;48752;51.056;17.056;2023-06-01T07:52:08;9.23;;;2.33;;
62687;SDS011;48752;51.056;17.056;2023-06-01T07:54:35;7.32;;;2.10;;
62687;SDS011;48752;51.056;17.056;2023-06-01T07:57:06;4.63;;;1.80;;
62687;SDS011;48752;51.056;17.056;2023-06-01T07:59:32;5.50;;;2.28;;
62687;SDS011;48752;51.056;17.056;2023-06-01T08:01:57;6.43;;;1.80;;
62687;SDS011;48752;51.056;17.056;2023-06-01T08:04:26;5.32;;;1.63;;
62687;SDS011;48752;51.056;17.056;2023-06-01T08:06:53;4.68;;;1.60;;
62687;SDS011;48752;51.056;17.056;2023-06-01T08:09:22;4.95;;;1.80;;
62687;SDS011;48752;51.056;17.056;2023-06-01T08:11:49;5.65;;;2.05;;
62687;SDS011;48752;51.056;17.056;2023-06-01T08:16:53;9.88;;;2.10;;
62687;SDS011;48752;51.056;17.056;2023-06-01T08:19:20;4.72;;;2.17;;
62687;SDS011;48752;51.056;17.056;2023-06-01T08:21:45;5.30;;;2.35;;
62687;SDS011;48752;51.056;17.056;2023-06-01T08:24:11;4.40;;;1.90;;
62687;SDS011;48752;51.056;17.056;2023-06-01T08:26:38;4.60;;;1.90;;
62687;SDS011;48752;51.056;17.056;2023-06-01T08:29:03;7.43;;;2.10;;
62687;SDS011;48752;51.056;17.056;2023-06-01T08:31:29;4.07;;;2.00;;
62687;SDS011;48752;51.056;17.056;2023-06-01T08:33:57;2.35;;;1.70;;
62687;SDS011;48752;51.056;17.056;2023-06-01T08:36:22;17.10;;;2.92;;
62687;SDS011;48752;51.056;17.056;2023-06-01T08:38:48;9.70;;;2.43;;
62687;SDS011;48752;51.056;17.056;2023-06-01T08:41:36;2.97;;;1.73;;
62687;SDS011;48752;51.056;17.056;2023-06-01T08:44:04;3.80;;;1.67;;
62687;SDS011;48752;51.056;17.056;2023-06-01T08:46:33;3.47;;;1.70;;
62687;SDS011;48752;51.056;17.056;2023-06-01T08:49:19;4.65;;;2.17;;
62687;SDS011;48752;51.056;17.056;2023-06-01T08:51:46;4.95;;;1.90;;
62687;SDS011;48752;51.056;17.056;2023-06-01T08:54:14;11.35;;;1.63;;
62687;SDS011;48752;51.056;17.056;2023-06-01T08:56:39;4.00;;;1.60;;
62687;SDS011;48752;51.056;17.056;2023-06-01T08:59:11;2.83;;;1.10;;
62687;SDS011;48752;51.056;17.056;2023-06-01T09:01:36;4.75;;;1.30;;
62687;SDS011;48752;51.056;17.056;2023-06-01T09:04:03;11.40;;;2.25;;
62687;SDS011;48752;51.056;17.056;2023-06-01T09:06:29;4.40;;;1.35;;
62687;SDS011;48752;51.056;17.056;2023-06-01T09:08:56;5.75;;;1.75;;
62687;SDS011;48752;51.056;17.056;2023-06-01T09:11:25;5.18;;;1.17;;
62687;SDS011;48752;51.056;17.056;2023-06-01T09:13:52;5.93;;;1.58;;
62687;SDS011;48752;51.056;17.056;2023-06-01T09:16:18;11.95;;;2.50;;
62687;SDS011;48752;51.056;17.056;2023-06-01T09:18:54;16.52;;;2.38;;
62687;SDS011;48752;51.056;17.056;2023-06-01T09:21:20;4.25;;;1.73;;
62687;SDS011;48752;51.056;17.056;2023-06-01T09:23:47;9.20;;;1.90;;
62687;SDS011;48752;51.056;17.056;2023-06-01T09:26:17;8.95;;;1.77;;
62687;SDS011;48752;51.056;17.056;2023-06-01T09:28:57;8.75;;;2.33;;
62687;SDS011;48752;51.056;17.056;2023-06-01T09:31:38;5.18;;;1.38;;
62687;SDS011;48752;51.056;17.056;2023-06-01T09:34:11;6.03;;;1.50;;
62687;SDS011;48752;51.056;17.056;2023-06-01T09:36:38;6.13;;;1.63;;
62687;SDS011;48752;51.056;17.056;2023-06-01T09:39:06;21.63;;;2.78;;
62687;SDS011;48752;51.056;17.056;2023-06-01T09:41:45;8.48;;;1.83;;
62687;SDS011;48752;51.056;17.056;2023-06-01T09:44:13;3.35;;;1.38;;
62687;SDS011;48752;51.056;17.056;2023-06-01T09:46:48;4.55;;;1.10;;
62687;SDS011;48752;51.056;17.056;2023-06-01T09:49:23;4.45;;;1.48;;
62687;SDS011;48752;51.056;17.056;2023-06-01T09:54:47;5.30;;;1.58;;
62687;SDS011;48752;51.056;17.056;2023-06-01T09:57:25;10.82;;;1.83;;
62687;SDS011;48752;51.056;17.056;2023-06-01T09:59:51;6.32;;;1.70;;
62687;SDS011;48752;51.056;17.056;2023-06-01T10:02:18;5.97;;;1.63;;
62687;SDS011;48752;51.056;17.056;2023-06-01T10:04:54;3.85;;;2.00;;
62687;SDS011;48752;51.056;17.056;2023-06-01T10:07:31;13.00;;;1.75;;
62687;SDS011;48752;51.056;17.056;2023-06-01T10:10:00;6.32;;;1.75;;
62687;SDS011;48752;51.056;17.056;2023-06-01T10:12:28;3.08;;;1.30;;
62687;SDS011;48752;51.056;17.056;2023-06-01T10:14:54;5.28;;;1.70;;
62687;SDS011;48752;51.056;17.056;2023-06-01T10:17:20;3.85;;;1.17;;
62687;SDS011;48752;51.056;17.056;2023-06-01T10:19:47;8.35;;;1.40;;
62687;SDS011;48752;51.056;17.056;2023-06-01T10:22:27;4.67;;;1.30;;
62687;SDS011;48752;51.056;17.056;2023-06-01T10:24:56;14.02;;;1.85;;
62687;SDS011;48752;51.056;17.056;2023-06-01T10:27:38;10.40;;;2.13;;
62687;SDS011;48752;51.056;17.056;2023-06-01T10:30:09;16.33;;;2.85;;
62687;SDS011;48752;51.056;17.056;2023-06-01T10:32:46;3.58;;;1.42;;
62687;SDS011;48752;51.056;17.056;2023-06-01T10:40:38;6.97;;;1.70;;
62687;SDS011;48752;51.056;17.056;2023-06-01T10:43:05;3.15;;;1.13;;
62687;SDS011;48752;51.056;17.056;2023-06-01T10:45:39;13.73;;;1.98;;
62687;SDS011;48752;51.056;17.056;2023-06-01T10:48:12;9.40;;;2.00;;
62687;SDS011;48752;51.056;17.056;2023-06-01T10:50:40;16.93;;;2.43;;
62687;SDS011;48752;51.056;17.056;2023-06-01T10:53:24;11.65;;;1.95;;
62687;SDS011;48752;51.056;17.056;2023-06-01T10:58:38;5.82;;;1.83;;
62687;SDS011;48752;51.056;17.056;2023-06-01T11:01:04;3.38;;;1.60;;
62687;SDS011;48752;51.056;17.056;2023-06-01T11:03:46;9.27;;;2.13;;
62687;SDS011;48752;51.056;17.056;2023-06-01T11:06:33;12.25;;;2.22;;
62687;SDS011;48752;51.056;17.056;2023-06-01T11:08:59;7.15;;;1.73;;
62687;SDS011;48752;51.056;17.056;2023-06-01T11:14:11;6.32;;;1.92;;
62687;SDS011;48752;51.056;17.056;2023-06-01T11:16:36;4.50;;;1.58;;
62687;SDS011;48752;51.056;17.056;2023-06-01T11:19:03;1.98;;;1.48;;
62687;SDS011;48752;51.056;17.056;2023-06-01T11:21:42;9.43;;;1.70;;
62687;SDS011;48752;51.056;17.056;2023-06-01T11:24:15;3.13;;;1.50;;
62687;SDS011;48752;51.056;17.056;2023-06-01T11:26:48;2.63;;;1.30;;
62687;SDS011;48752;51.056;17.056;2023-06-01T11:29:24;5.82;;;1.67;;
62687;SDS011;48752;51.056;17.056;2023-06-01T11:31:54;26.05;;;2.80;;
62687;SDS011;48752;51.056;17.056;2023-06-01T11:34:27;8.60;;;1.67;;
62687;SDS011;48752;51.056;17.056;2023-06-01T11:36:55;4.68;;;1.88;;
62687;SDS011;48752;51.056;17.056;2023-06-01T11:39:26;5.97;;;2.13;;
62687;SDS011;48752;51.056;17.056;2023-06-01T11:42:16;3.35;;;1.52;;
62687;SDS011;48752;51.056;17.056;2023-06-01T11:45:06;10.00;;;2.13;;
62687;SDS011;48752;51.056;17.056;2023-06-01T11:47:32;17.25;;;3.55;;
62687;SDS011;48752;51.056;17.056;2023-06-01T11:49:59;7.68;;;2.10;;
62687;SDS011;48752;51.056;17.056;2023-06-01T11:52:26;7.50;;;1.65;;
62687;SDS011;48752;51.056;17.056;2023-06-01T11:54:53;30.42;;;3.30;;
62687;SDS011;48752;51.056;17.056;2023-06-01T11:57:28;10.88;;;2.33;;
62687;SDS011;48752;51.056;17.056;2023-06-01T12:00:14;8.07;;;2.00;;
62687;SDS011;48752;51.056;17.056;2023-06-01T12:02:40;11.68;;;2.15;;
62687;SDS011;48752;51.056;17.056;2023-06-01T12:05:08;6.32;;;2.10;;
62687;SDS011;48752;51.056;17.056;2023-06-01T12:07:48;8.85;;;2.10;;
62687;SDS011;48752;51.056;17.056;2023-06-01T12:12:53;7.70;;;2.47;;
62687;SDS011;48752;51.056;17.056;2023-06-01T12:15:20;6.22;;;1.88;;
62687;SDS011;48752;51.056;17.056;2023-06-01T12:17:49;9.98;;;1.90;;
62687;SDS011;48752;51.056;17.056;2023-06-01T12:20:59;4.85;;;2.10;;
62687;SDS011;48752;51.056;17.056;2023-06-01T12:28:51;11.02;;;2.60;;
62687;SDS011;48752;51.056;17.056;2023-06-01T12:31:18;5.20;;;2.20;;
62687;SDS011;48752;51.056;17.056;2023-06-01T12:33:44;4.28;;;1.58;;
62687;SDS011;48752;51.056;17.056;2023-06-01T12:36:27;6.88;;;2.47;;
62687;SDS011;48752;51.056;17.056;2023-06-01T12:38:54;9.95;;;2.33;;
62687;SDS011;48752;51.056;17.056;2023-06-01T12:41:20;3.90;;;1.80;;
62687;SDS011;48752;51.056;17.056;2023-06-01T12:43:49;7.07;;;2.25;;
62687;SDS011;48752;51.056;17.056;2023-06-01T12:46:23;5.13;;;1.80;;
62687;SDS011;48752;51.056;17.056;2023-06-01T12:48:49;9.10;;;2.60;;
62687;SDS011;48752;51.056;17.056;2023-06-01T12:51:21;9.20;;;2.22;;
62687;SDS011;48752;51.056;17.056;2023-06-01T12:53:47;10.07;;;2.53;;
62687;SDS011;48752;51.056;17.056;2023-06-01T12:56:13;8.18;;;2.22;;
62687;SDS011;48752;51.056;17.056;2023-06-01T12:58:39;13.50;;;2.50;;
62687;SDS011;48752;51.056;17.056;2023-06-01T13:01:04;7.43;;;2.22;;
62687;SDS011;48752;51.056;17.056;2023-06-01T13:03:30;8.38;;;2.60;;
62687;SDS011;48752;51.056;17.056;2023-06-01T13:05:55;6.38;;;2.17;;
62687;SDS011;48752;51.056;17.056;2023-06-01T13:08:22;34.53;;;4.55;;
62687;SDS011;48752;51.056;17.056;2023-06-01T13:10:48;18.77;;;3.20;;
62687;SDS011;48752;51.056;17.056;2023-06-01T13:13:29;12.07;;;2.47;;
62687;SDS011;48752;51.056;17.056;2023-06-01T13:15:55;7.15;;;2.47;;
62687;SDS011;48752;51.056;17.056;2023-06-01T13:18:20;10.32;;;2.33;;
62687;SDS011;48752;51.056;17.056;2023-06-01T13:20:48;22.42;;;3.13;;
62687;SDS011;48752;51.056;17.056;2023-06-01T13:23:13;52.63;;;4.63;;
62687;SDS011;48752;51.056;17.056;2023-06-01T13:25:39;6.37;;;2.27;;
62687;SDS011;48752;51.056;17.056;2023-06-01T13:28:04;25.00;;;3.63;;
62687;SDS011;48752;51.056;17.056;2023-06-01T13:30:31;12.77;;;3.13;;
62687;SDS011;48752;51.056;17.056;2023-06-01T13:32:59;16.48;;;2.72;;
62687;SDS011;48752;51.056;17.056;2023-06-01T13:35:24;5.75;;;2.15;;
62687;SDS011;48752;51.056;17.056;2023-06-01T13:37:51;12.02;;;2.78;;
62687;SDS011;48752;51.056;17.056;2023-06-01T13:40:17;5.55;;;2.45;;
62687;SDS011;48752;51.056;17.056;2023-06-01T13:42:51;4.18;;;2.25;;
62687;SDS011;48752;51.056;17.056;2023-06-01T13:45:31;6.25;;;2.53;;
62687;SDS011;48752;51.056;17.056;2023-06-01T13:47:57;12.93;;;2.50;;
62687;SDS011;48752;51.056;17.056;2023-06-01T13:50:24;7.60;;;2.35;;
62687;SDS011;48752;51.056;17.056;2023-06-01T13:52:49;6.03;;;2.70;;
62687;SDS011;48752;51.056;17.056;2023-06-01T13:55:16;7.50;;;2.40;;
62687;SDS011;48752;51.056;17.056;2023-06-01T13:57:42;9.40;;;2.38;;
62687;SDS011;48752;51.056;17.056;2023-06-01T14:00:08;13.53;;;2.50;;
62687;SDS011;48752;51.056;17.056;2023-06-01T14:02:37;15.80;;;3.10;;
62687;SDS011;48752;51.056;17.056;2023-06-01T14:05:04;14.35;;;3.10;;
62687;SDS011;48752;51.056;17.056;2023-06-01T14:07:30;11.77;;;2.72;;
62687;SDS011;48752;51.056;17.056;2023-06-01T14:09:56;7.67;;;2.90;;
62687;SDS011;48752;51.056;17.056;2023-06-01T14:12:21;12.43;;;3.13;;
62687;SDS011;48752;51.056;17.056;2023-06-01T14:14:47;6.50;;;2.25;;
62687;SDS011;48752;51.056;17.056;2023-06-01T14:17:13;8.18;;;2.58;;
62687;SDS011;48752;51.056;17.056;2023-06-01T14:19:41;9.93;;;2.97;;
62687;SDS011;48752;51.056;17.056;2023-06-01T14:22:06;8.73;;;2.67;;
62687;SDS011;48752;51.056;17.056;2023-06-01T14:24:31;9.23;;;2.45;;
62687;SDS011;48752;51.056;17.056;2023-06-01T14:26:57;8.10;;;2.83;;
62687;SDS011;48752;51.056;17.056;2023-06-01T14:29:24;17.13;;;3.75;;
62687;SDS011;48752;51.056;17.056;2023-06-01T14:31:50;9.02;;;2.67;;
62687;SDS011;48752;51.056;17.056;2023-06-01T14:34:15;7.63;;;2.40;;
62687;SDS011;48752;51.056;17.056;2023-06-01T14:36:42;10.53;;;2.60;;
62687;SDS011;48752;51.056;17.056;2023-06-01T14:39:07;11.40;;;2.40;;
62687;SDS011;48752;51.056;17.056;2023-06-01T14:41:32;4.03;;;2.00;;
62687;SDS011;48752;51.056;17.056;2023-06-01T14:43:59;8.27;;;2.50;;
62687;SDS011;48752;51.056;17.056;2023-06-01T14:46:26;6.35;;;3.00;;
62687;SDS011;48752;51.056;17.056;2023-06-01T14:48:51;4.60;;;2.40;;
62687;SDS011;48752;51.056;17.056;2023-06-01T14:51:17;6.13;;;2.23;;
62687;SDS011;48752;51.056;17.056;2023-06-01T14:53:44;9.18;;;3.08;;
62687;SDS011;48752;51.056;17.056;2023-06-01T14:56:12;6.70;;;2.45;;
62687;SDS011;48752;51.056;17.056;2023-06-01T14:58:38;4.53;;;2.30;;
62687;SDS011;48752;51.056;17.056;2023-06-01T15:01:04;4.53;;;2.80;;
62687;SDS011;48752;51.056;17.056;2023-06-01T15:03:29;9.10;;;2.75;;
62687;SDS011;48752;51.056;17.056;2023-06-01T15:05:56;3.17;;;2.30;;
62687;SDS011;48752;51.056;17.056;2023-06-01T15:08:22;7.95;;;2.72;;
62687;SDS011;48752;51.056;17.056;2023-06-01T15:10:48;4.18;;;2.28;;
62687;SDS011;48752;51.056;17.056;2023-06-01T15:13:13;7.30;;;2.20;;
62687;SDS011;48752;51.056;17.056;2023-06-01T15:15:39;4.18;;;2.30;;
62687;SDS011;48752;51.056;17.056;2023-06-01T15:18:06;8.43;;;2.67;;
62687;SDS011;48752;51.056;17.056;2023-06-01T15:20:32;5.30;;;2.53;;
62687;SDS011;48752;51.056;17.056;2023-06-01T15:22:57;4.03;;;2.20;;